KMUT

Muscatine Municipal Airport

Muscatine, Iowa, USA
METAR KMUT 161415Z AUTO 18004KT 10SM CLR 02/M04 A2984 RMK AO2
Observed Flight Rules
Dec-16 @ 14:15 UTC (22 minutes ago) Visual Flight Rules
Wind Visibility Clouds
180° at 4 knots 10 miles
  • Clear skies
Temperatures Readings
Current 2°C / 36°F
Dewpoint -4°C / 25°F
Humidity 65%
Altimeter 29.84" Hg
Pressure 1010 hPa
Elevation 167
METAR KMUT 161415Z AUTO 18004KT 10SM CLR 02/M04 A2984 RMK AO2
Observed Flight Rules
Dec-16 @ 14:15 UTC
(22 minutes ago)
VFR
Wind Visibility
180° at 4 knots 10 miles
Clouds
  • Clear skies
Temperature Dewpoint
2°C / 36°F -4°C / 25°F
Humidity Altimeter Pressure
65% 29.84" Hg 1010 hPa